createdAt,value
2023-05-23T00:01:59.614Z,11.10
2023-05-23T00:04:26.769Z,10.23
2023-05-23T00:06:54.106Z,10.43
2023-05-23T00:09:21.424Z,10.53
2023-05-23T00:11:48.542Z,10.70
2023-05-23T00:14:17.031Z,11.10
2023-05-23T00:16:44.712Z,10.87
2023-05-23T00:19:12.160Z,10.00
2023-05-23T00:21:39.285Z,10.33
2023-05-23T00:24:06.598Z,10.40
2023-05-23T00:26:33.811Z,10.30
2023-05-23T00:29:00.962Z,11.63
2023-05-23T00:31:29.493Z,11.40
2023-05-23T00:33:57.445Z,11.33
2023-05-23T00:36:24.561Z,9.63
2023-05-23T00:38:51.682Z,10.00
2023-05-23T00:41:18.794Z,10.77
2023-05-23T00:43:45.912Z,9.70
2023-05-23T00:46:13.673Z,10.90
2023-05-23T00:48:42.198Z,9.87
2023-05-23T00:51:09.305Z,10.73
2023-05-23T00:53:36.518Z,9.50
2023-05-23T00:56:04.058Z,8.50
2023-05-23T00:58:31.374Z,6.60
2023-05-23T01:00:58.752Z,6.70
2023-05-23T01:03:26.111Z,6.37
2023-05-23T01:05:54.629Z,6.43
2023-05-23T01:08:21.989Z,5.80
2023-05-23T01:10:49.546Z,5.20
2023-05-23T01:13:21.238Z,5.30
2023-05-23T01:15:52.011Z,4.67
2023-05-23T01:18:21.044Z,6.27
2023-05-23T01:20:51.007Z,5.20
2023-05-23T01:23:25.587Z,5.00
2023-05-23T01:26:04.017Z,5.17
2023-05-23T01:28:37.828Z,4.97
2023-05-23T01:31:07.607Z,4.97
2023-05-23T01:33:35.682Z,5.03
2023-05-23T01:36:03.480Z,5.27
2023-05-23T01:38:30.941Z,4.67
2023-05-23T01:40:58.365Z,5.60
2023-05-23T01:43:25.690Z,5.23
2023-05-23T01:45:55.088Z,5.10
2023-05-23T01:48:22.672Z,5.17
2023-05-23T01:50:49.831Z,4.87
2023-05-23T01:53:18.116Z,5.20
2023-05-23T01:55:45.561Z,4.90
2023-05-23T01:58:13.084Z,4.53
2023-05-23T02:00:40.254Z,5.20
2023-05-23T02:03:09.066Z,5.17
2023-05-23T02:05:36.380Z,4.30
2023-05-23T02:08:03.642Z,5.47
2023-05-23T02:10:30.766Z,4.97
2023-05-23T02:13:00.472Z,6.20
2023-05-23T02:15:28.564Z,4.70
2023-05-23T02:17:58.434Z,5.13
2023-05-23T02:20:27.128Z,4.90
2023-05-23T02:22:54.208Z,5.70
2023-05-23T02:25:24.315Z,4.30
2023-05-23T02:27:51.536Z,5.07
2023-05-23T02:30:18.731Z,4.87
2023-05-23T02:32:45.905Z,5.17
2023-05-23T02:35:13.013Z,5.83
2023-05-23T02:37:41.899Z,5.30
2023-05-23T02:40:09.468Z,5.50
2023-05-23T02:42:36.964Z,5.00
2023-05-23T02:45:04.370Z,6.43
2023-05-23T02:47:31.740Z,5.10
2023-05-23T02:49:58.913Z,5.87
2023-05-23T02:52:25.983Z,5.47
2023-05-23T02:54:55.030Z,5.87
2023-05-23T02:57:22.414Z,5.50
2023-05-23T02:59:49.517Z,6.60
2023-05-23T03:02:16.740Z,5.30
2023-05-23T03:04:43.848Z,5.43
2023-05-23T03:07:17.161Z,5.23
2023-05-23T03:09:51.929Z,7.10
2023-05-23T03:12:20.403Z,6.57
2023-05-23T03:14:47.465Z,6.60
2023-05-23T03:17:14.719Z,7.00
2023-05-23T03:19:41.975Z,6.33
2023-05-23T03:22:09.066Z,6.80
2023-05-23T03:24:36.166Z,8.50
2023-05-23T03:27:03.262Z,8.57
2023-05-23T03:29:31.857Z,7.07
2023-05-23T03:31:59.046Z,7.40
2023-05-23T03:34:26.142Z,7.87
2023-05-23T03:36:53.230Z,7.30
2023-05-23T03:39:20.303Z,8.00
2023-05-23T03:41:47.381Z,7.53
2023-05-23T03:44:15.034Z,7.80
2023-05-23T03:46:43.710Z,7.07
2023-05-23T03:49:11.148Z,6.80
2023-05-23T03:51:38.231Z,6.40
2023-05-23T03:54:05.502Z,6.60
2023-05-23T03:56:33.016Z,7.10
2023-05-23T03:59:00.186Z,6.23
2023-05-23T04:01:27.333Z,5.90
2023-05-23T04:03:56.479Z,6.63
2023-05-23T04:06:26.209Z,6.10
2023-05-23T04:08:53.358Z,6.50
2023-05-23T04:11:20.456Z,6.23
2023-05-23T04:13:47.549Z,7.27
2023-05-23T04:16:14.825Z,5.80
2023-05-23T04:18:42.145Z,5.33
2023-05-23T04:21:10.951Z,7.00
2023-05-23T04:23:45.228Z,7.13
2023-05-23T04:26:12.455Z,5.73
2023-05-23T04:28:45.588Z,6.60
2023-05-23T04:31:13.052Z,7.40
2023-05-23T04:33:40.369Z,6.87
2023-05-23T04:36:08.139Z,6.53
2023-05-23T04:38:37.461Z,6.60
2023-05-23T04:41:05.563Z,7.30
2023-05-23T04:43:45.650Z,7.97
2023-05-23T04:46:20.451Z,7.30
2023-05-23T04:48:51.937Z,7.97
2023-05-23T04:51:19.822Z,7.57
2023-05-23T04:53:58.190Z,7.73
2023-05-23T04:56:25.968Z,8.03
2023-05-23T04:58:53.127Z,6.80
2023-05-23T05:01:22.242Z,8.40
2023-05-23T05:03:51.573Z,8.13
2023-05-23T05:06:19.085Z,7.50
2023-05-23T05:08:47.359Z,8.40
2023-05-23T05:11:16.333Z,7.73
2023-05-23T05:13:43.483Z,8.43
2023-05-23T05:16:10.602Z,8.53
2023-05-23T05:18:39.495Z,8.00
2023-05-23T05:21:06.848Z,8.63
2023-05-23T05:23:33.939Z,9.30
2023-05-23T05:26:01.074Z,9.33
2023-05-23T05:28:29.780Z,8.53
2023-05-23T05:30:57.052Z,9.03
2023-05-23T05:33:24.568Z,8.23
2023-05-23T05:35:59.955Z,9.00
2023-05-23T05:38:27.111Z,9.10
2023-05-23T05:40:54.576Z,9.10
2023-05-23T05:43:22.653Z,8.53
2023-05-23T05:45:51.212Z,8.63
2023-05-23T05:48:18.397Z,10.33
2023-05-23T05:50:45.770Z,8.13
2023-05-23T05:53:13.814Z,8.87
2023-05-23T05:55:41.060Z,8.63
2023-05-23T05:58:08.252Z,9.97
2023-05-23T06:00:55.599Z,9.43
2023-05-23T06:03:22.955Z,8.60
2023-05-23T06:05:53.972Z,10.10
2023-05-23T06:08:21.764Z,9.67
2023-05-23T06:10:49.136Z,9.70
2023-05-23T06:13:16.281Z,11.50
2023-05-23T06:15:46.522Z,10.37
2023-05-23T06:18:15.807Z,10.07
2023-05-23T06:20:43.106Z,9.90
2023-05-23T06:23:14.602Z,10.20
2023-05-23T06:25:41.983Z,10.50
2023-05-23T06:28:09.028Z,10.73
2023-05-23T06:30:37.599Z,10.40
2023-05-23T06:33:04.977Z,10.50
2023-05-23T06:35:33.568Z,9.87
2023-05-23T06:38:01.572Z,10.60
2023-05-23T06:40:28.893Z,11.23
2023-05-23T06:42:56.187Z,12.40
2023-05-23T06:45:35.041Z,13.33
2023-05-23T06:48:02.253Z,11.50
2023-05-23T06:50:30.672Z,12.07
2023-05-23T06:52:59.367Z,11.40
2023-05-23T06:55:26.787Z,9.27
2023-05-23T06:57:55.451Z,9.40
2023-05-23T07:00:23.502Z,9.30
2023-05-23T07:03:02.742Z,8.47
2023-05-23T07:05:33.781Z,10.00
2023-05-23T07:08:02.694Z,8.40
2023-05-23T07:10:30.149Z,9.70
2023-05-23T07:13:05.630Z,8.57
2023-05-23T07:15:32.951Z,9.40
2023-05-23T07:18:08.263Z,9.03
2023-05-23T07:20:36.018Z,9.23
2023-05-23T07:23:12.951Z,12.93
2023-05-23T07:25:44.557Z,11.20
2023-05-23T07:28:26.071Z,11.73
2023-05-23T07:30:55.246Z,10.50
2023-05-23T07:33:22.371Z,9.87
2023-05-23T07:35:49.907Z,9.50
2023-05-23T07:38:18.520Z,8.77
2023-05-23T07:40:55.395Z,8.50
2023-05-23T07:43:30.232Z,8.40
2023-05-23T07:45:57.477Z,8.70
2023-05-23T07:48:24.903Z,10.13
2023-05-23T07:50:52.527Z,9.53
2023-05-23T07:53:21.168Z,8.20
2023-05-23T07:55:49.017Z,8.37
2023-05-23T07:58:16.525Z,8.10
2023-05-23T08:00:43.782Z,9.40
2023-05-23T08:03:23.852Z,9.20
2023-05-23T08:06:01.546Z,11.50
2023-05-23T08:08:30.825Z,8.80
2023-05-23T08:10:58.512Z,10.00
2023-05-23T08:13:30.740Z,9.50
2023-05-23T08:16:17.906Z,9.70
2023-05-23T08:18:45.526Z,11.23
2023-05-23T08:21:12.800Z,9.63
2023-05-23T08:23:41.348Z,10.20
2023-05-23T08:26:08.624Z,10.70
2023-05-23T08:28:36.058Z,11.47
2023-05-23T08:31:04.654Z,12.03
2023-05-23T08:33:31.855Z,11.83
2023-05-23T08:35:59.892Z,13.07
2023-05-23T08:38:27.057Z,10.50
2023-05-23T08:41:06.071Z,9.10
2023-05-23T08:43:33.279Z,8.87
2023-05-23T08:46:00.557Z,11.30
2023-05-23T08:48:30.372Z,12.13
2023-05-23T08:50:58.531Z,12.77
2023-05-23T08:53:27.713Z,14.77
2023-05-23T08:56:02.962Z,15.77
2023-05-23T08:58:40.329Z,13.67
2023-05-23T09:01:08.150Z,11.37
2023-05-23T09:03:36.501Z,10.73
2023-05-23T09:06:29.962Z,11.60
2023-05-23T09:08:57.707Z,13.50
2023-05-23T09:11:25.370Z,10.53
2023-05-23T09:13:54.059Z,10.43
2023-05-23T09:16:22.923Z,10.00
2023-05-23T09:18:54.321Z,9.00
2023-05-23T09:21:25.027Z,9.60
2023-05-23T09:24:10.970Z,9.67
2023-05-23T09:26:38.649Z,11.20
2023-05-23T09:29:07.537Z,12.53
2023-05-23T09:31:35.751Z,14.23
2023-05-23T09:34:03.302Z,15.20
2023-05-23T09:36:30.775Z,12.00
2023-05-23T09:38:58.024Z,12.57
2023-05-23T09:41:25.593Z,11.37
2023-05-23T09:43:53.444Z,10.37
2023-05-23T09:46:22.541Z,9.10
2023-05-23T09:48:50.440Z,9.07
2023-05-23T09:51:19.113Z,9.40
2023-05-23T09:53:46.455Z,8.30
2023-05-23T09:56:14.194Z,7.73
2023-05-23T09:58:44.131Z,9.50
2023-05-23T10:01:12.241Z,16.30
2023-05-23T10:03:48.771Z,16.43
2023-05-23T10:06:18.490Z,15.20
2023-05-23T10:08:46.628Z,20.17
2023-05-23T10:11:34.787Z,27.60
2023-05-23T10:14:02.973Z,33.00
2023-05-23T10:16:34.921Z,32.70
2023-05-23T10:19:07.093Z,26.90
2023-05-23T10:21:36.624Z,21.90
2023-05-23T10:24:04.438Z,18.80
2023-05-23T10:26:32.074Z,17.57
2023-05-23T10:28:59.592Z,22.70
2023-05-23T10:31:27.025Z,23.40
2023-05-23T10:33:56.699Z,36.53
2023-05-23T10:36:30.272Z,30.60
2023-05-23T10:39:00.837Z,27.33
2023-05-23T10:41:29.622Z,28.50
2023-05-23T10:44:01.833Z,19.17
2023-05-23T10:46:50.520Z,12.87
2023-05-23T10:49:17.904Z,10.03
2023-05-23T10:51:49.144Z,8.70
2023-05-23T10:54:19.010Z,7.50
2023-05-23T10:56:46.170Z,7.20
2023-05-23T10:59:20.776Z,7.07
2023-05-23T11:01:48.165Z,8.47
2023-05-23T11:04:15.392Z,8.10
2023-05-23T11:06:43.587Z,7.17
2023-05-23T11:09:13.550Z,7.53
2023-05-23T11:11:53.245Z,8.83
2023-05-23T11:14:20.929Z,7.10
2023-05-23T11:16:48.078Z,9.03
2023-05-23T11:19:22.039Z,8.80
2023-05-23T11:21:50.668Z,9.80
2023-05-23T11:24:19.208Z,8.13
2023-05-23T11:26:53.988Z,8.40
2023-05-23T11:29:21.459Z,7.83
2023-05-23T11:31:48.664Z,8.03
2023-05-23T11:34:15.914Z,8.10
2023-05-23T11:36:43.055Z,7.20
2023-05-23T11:39:10.615Z,7.37
2023-05-23T11:41:39.097Z,9.33
2023-05-23T11:44:11.914Z,8.20
2023-05-23T11:46:39.545Z,8.87
2023-05-23T11:49:11.396Z,7.73
2023-05-23T11:51:38.723Z,7.63
2023-05-23T11:54:06.160Z,7.73
2023-05-23T11:56:39.469Z,6.73
2023-05-23T11:59:07.902Z,10.33
2023-05-23T12:01:37.737Z,9.67
2023-05-23T12:04:10.091Z,14.27
2023-05-23T12:06:38.787Z,14.03
2023-05-23T12:09:06.011Z,11.30
2023-05-23T12:11:33.279Z,9.10
2023-05-23T12:14:00.460Z,8.00
2023-05-23T12:16:29.444Z,9.00
2023-05-23T12:18:56.839Z,10.40
2023-05-23T12:21:25.979Z,12.77
2023-05-23T12:23:53.273Z,9.30
2023-05-23T12:26:20.521Z,8.70
2023-05-23T12:28:47.748Z,8.50
2023-05-23T12:31:17.319Z,7.77
2023-05-23T12:33:47.077Z,6.90
2023-05-23T12:36:14.432Z,6.37
2023-05-23T12:38:42.975Z,6.80
2023-05-23T12:41:11.168Z,5.60
2023-05-23T12:43:39.031Z,6.17
2023-05-23T12:46:06.279Z,5.00
2023-05-23T12:48:33.387Z,6.07
2023-05-23T12:51:01.890Z,5.40
2023-05-23T12:53:29.031Z,6.93
2023-05-23T12:55:56.154Z,5.97
2023-05-23T12:58:23.288Z,7.20
2023-05-23T13:00:50.535Z,7.57
2023-05-23T13:03:17.840Z,5.73
2023-05-23T13:05:45.028Z,7.60
2023-05-23T13:08:13.469Z,8.40
2023-05-23T13:10:40.726Z,7.50
2023-05-23T13:13:07.799Z,7.50
2023-05-23T13:15:34.893Z,16.30
2023-05-23T13:18:02.340Z,8.67
2023-05-23T13:20:29.584Z,10.77
2023-05-23T13:22:56.859Z,8.90
2023-05-23T13:25:25.526Z,11.60
2023-05-23T13:27:52.739Z,10.40
2023-05-23T13:30:20.187Z,11.03
2023-05-23T13:32:48.601Z,8.03
2023-05-23T13:35:17.669Z,7.90
2023-05-23T13:37:44.799Z,6.30
2023-05-23T13:40:13.966Z,6.97
2023-05-23T13:42:42.373Z,7.20
2023-05-23T13:45:09.795Z,6.93
2023-05-23T13:47:36.996Z,7.67
2023-05-23T13:50:04.589Z,6.03
2023-05-23T13:52:31.712Z,6.13
2023-05-23T13:54:58.817Z,7.93
2023-05-23T13:57:25.917Z,8.77
2023-05-23T13:59:54.379Z,8.10
2023-05-23T14:02:21.504Z,8.57
2023-05-23T14:04:49.118Z,9.30
2023-05-23T14:07:16.250Z,9.77
2023-05-23T14:09:43.369Z,10.10
2023-05-23T14:12:10.567Z,8.93
2023-05-23T14:14:37.659Z,9.07
2023-05-23T14:17:06.354Z,8.80
2023-05-23T14:19:33.479Z,8.70
2023-05-23T14:22:00.628Z,7.53
2023-05-23T14:24:27.794Z,7.90
2023-05-23T14:26:54.946Z,6.27
2023-05-23T14:29:22.010Z,6.80
2023-05-23T14:31:49.340Z,7.27
2023-05-23T14:34:17.776Z,7.60
2023-05-23T14:36:44.874Z,7.80
2023-05-23T14:39:11.983Z,5.47
2023-05-23T14:41:39.183Z,6.67
2023-05-23T14:44:06.395Z,6.03
2023-05-23T14:46:33.660Z,5.43
2023-05-23T14:49:00.827Z,6.17
2023-05-23T14:51:44.127Z,6.10
2023-05-23T14:54:16.110Z,6.10
2023-05-23T14:56:43.421Z,5.50
2023-05-23T14:59:10.538Z,5.00
2023-05-23T15:01:40.167Z,5.37
2023-05-23T15:04:08.236Z,5.40
2023-05-23T15:06:36.934Z,6.00
2023-05-23T15:09:04.046Z,6.30
2023-05-23T15:11:31.172Z,5.40
2023-05-23T15:13:58.445Z,6.40
2023-05-23T15:16:25.867Z,7.67
2023-05-23T15:18:53.223Z,5.93
2023-05-23T15:21:20.436Z,5.60
2023-05-23T15:23:48.904Z,6.60
2023-05-23T15:26:15.994Z,6.20
2023-05-23T15:28:43.076Z,6.37
2023-05-23T15:31:10.175Z,6.40
2023-05-23T15:33:37.320Z,5.30
2023-05-23T15:36:04.540Z,5.03
2023-05-23T15:38:31.641Z,5.90
2023-05-23T15:41:00.132Z,6.17
2023-05-23T15:43:27.255Z,6.87
2023-05-23T15:45:54.435Z,6.33
2023-05-23T15:48:21.693Z,8.13
2023-05-23T15:50:48.818Z,7.73
2023-05-23T15:53:16.090Z,7.93
2023-05-23T15:55:43.255Z,7.30
2023-05-23T15:58:12.143Z,7.30
2023-05-23T16:00:39.487Z,5.63
2023-05-23T16:03:06.789Z,5.50
2023-05-23T16:05:33.932Z,6.37
2023-05-23T16:08:01.097Z,5.70
2023-05-23T16:10:28.312Z,6.07
2023-05-23T16:12:55.508Z,5.50
2023-05-23T16:15:23.949Z,4.17
2023-05-23T16:17:51.080Z,3.97
2023-05-23T16:20:18.329Z,4.30
2023-05-23T16:22:45.502Z,3.77
2023-05-23T16:25:12.611Z,4.17
2023-05-23T16:27:39.715Z,4.43
2023-05-23T16:30:07.376Z,4.53
2023-05-23T16:32:36.118Z,4.37
2023-05-23T16:35:03.318Z,4.37
2023-05-23T16:37:30.445Z,4.10
2023-05-23T16:39:57.527Z,4.20
2023-05-23T16:42:24.823Z,4.00
2023-05-23T16:44:52.093Z,3.27
2023-05-23T16:47:19.328Z,3.60
2023-05-23T16:49:47.757Z,4.73
2023-05-23T16:52:14.917Z,4.73
2023-05-23T16:54:42.103Z,4.47
2023-05-23T16:57:09.203Z,5.17
2023-05-23T16:59:36.466Z,5.83
2023-05-23T17:02:03.786Z,6.33
2023-05-23T17:04:31.983Z,5.50
2023-05-23T17:07:00.559Z,4.80
2023-05-23T17:09:27.704Z,4.67
2023-05-23T17:11:54.838Z,5.13
2023-05-23T17:14:22.018Z,3.83
2023-05-23T17:16:49.086Z,4.50
2023-05-23T17:19:16.334Z,4.20
2023-05-23T17:21:43.632Z,5.03
2023-05-23T17:24:12.219Z,5.30
2023-05-23T17:26:39.339Z,4.17
2023-05-23T17:29:06.587Z,5.13
2023-05-23T17:31:33.798Z,4.80
2023-05-23T17:34:00.934Z,4.77
2023-05-23T17:36:28.161Z,5.40
2023-05-23T17:38:55.256Z,4.30
2023-05-23T17:41:23.824Z,4.87
2023-05-23T17:43:51.049Z,4.03
2023-05-23T17:46:18.265Z,4.50
2023-05-23T17:48:47.765Z,4.67
2023-05-23T17:51:15.960Z,3.90
2023-05-23T17:53:43.269Z,4.20
2023-05-23T17:56:10.707Z,3.87
2023-05-23T17:58:41.071Z,3.77
2023-05-23T18:01:10.700Z,3.50
2023-05-23T18:03:38.151Z,3.40
2023-05-23T18:06:05.600Z,3.37
2023-05-23T18:08:32.741Z,3.63
2023-05-23T18:10:59.905Z,4.37
2023-05-23T18:13:27.062Z,3.77
2023-05-23T18:15:55.578Z,4.63
2023-05-23T18:18:22.722Z,4.10
2023-05-23T18:20:49.866Z,4.43
2023-05-23T18:23:17.008Z,4.20
2023-05-23T18:25:44.124Z,4.30
2023-05-23T18:28:11.230Z,4.07
2023-05-23T18:30:38.337Z,4.40
2023-05-23T18:33:06.877Z,4.20
2023-05-23T18:35:34.039Z,4.03
2023-05-23T18:38:01.130Z,4.10
2023-05-23T18:40:28.306Z,3.90
2023-05-23T18:42:55.476Z,3.37
2023-05-23T18:45:22.677Z,3.70
2023-05-23T18:47:49.981Z,3.87
2023-05-23T18:50:18.894Z,3.97
2023-05-23T18:52:46.082Z,3.60
2023-05-23T18:55:13.323Z,4.13
2023-05-23T18:57:40.468Z,3.40
2023-05-23T19:00:08.334Z,4.03
2023-05-23T19:02:35.539Z,3.27
2023-05-23T19:05:03.040Z,4.07
2023-05-23T19:07:31.451Z,3.47
2023-05-23T19:09:58.620Z,3.07
2023-05-23T19:12:25.745Z,3.47
2023-05-23T19:14:52.839Z,3.90
2023-05-23T19:17:19.981Z,4.10
2023-05-23T19:19:47.224Z,3.60
2023-05-23T19:22:14.397Z,3.40
2023-05-23T19:24:42.903Z,3.80
2023-05-23T19:27:10.063Z,4.43
2023-05-23T19:29:37.151Z,3.13
2023-05-23T19:32:04.378Z,2.80
2023-05-23T19:34:31.609Z,3.83
2023-05-23T19:36:58.775Z,3.00
2023-05-23T19:39:25.931Z,3.67
2023-05-23T19:41:54.334Z,3.63
2023-05-23T19:44:21.636Z,4.73
2023-05-23T19:46:48.835Z,2.93
2023-05-23T19:49:15.977Z,3.57
2023-05-23T19:51:43.134Z,3.80
2023-05-23T19:54:10.359Z,3.80
2023-05-23T19:56:37.591Z,4.33
2023-05-23T19:59:05.999Z,4.60
2023-05-23T20:01:33.240Z,3.70
2023-05-23T20:04:00.420Z,3.70
2023-05-23T20:06:27.585Z,3.67
2023-05-23T20:08:54.682Z,3.30
2023-05-23T20:11:22.212Z,3.70
2023-05-23T20:13:49.306Z,3.40
2023-05-23T20:16:17.851Z,2.80
2023-05-23T20:18:45.042Z,3.23
2023-05-23T20:21:12.101Z,3.27
2023-05-23T20:23:39.237Z,3.67
2023-05-23T20:26:08.183Z,4.13
2023-05-23T20:28:36.871Z,3.20
2023-05-23T20:31:04.061Z,4.30
2023-05-23T20:33:32.600Z,4.13
2023-05-23T20:35:59.747Z,3.43
2023-05-23T20:38:26.863Z,2.83
2023-05-23T20:40:54.056Z,3.30
2023-05-23T20:43:21.434Z,3.57
2023-05-23T20:45:48.583Z,3.30
2023-05-23T20:48:15.813Z,3.40
2023-05-23T20:50:44.550Z,4.53
2023-05-23T20:53:11.801Z,3.80
2023-05-23T20:55:39.082Z,3.90
2023-05-23T20:58:06.317Z,3.63
2023-05-23T21:00:33.452Z,4.70
2023-05-23T21:03:00.623Z,3.90
2023-05-23T21:05:27.785Z,3.80
2023-05-23T21:07:56.282Z,3.30
2023-05-23T21:10:23.385Z,3.37
2023-05-23T21:12:50.439Z,4.10
2023-05-23T21:15:17.709Z,3.73
2023-05-23T21:17:44.890Z,3.30
2023-05-23T21:20:12.539Z,3.67
2023-05-23T21:22:39.821Z,3.50
2023-05-23T21:25:08.840Z,3.37
2023-05-23T21:27:36.077Z,4.07
2023-05-23T21:30:03.194Z,4.07
2023-05-23T21:32:30.377Z,3.10
2023-05-23T21:34:57.665Z,3.30
2023-05-23T21:37:25.050Z,3.90
2023-05-23T21:39:52.835Z,3.70
2023-05-23T21:42:21.343Z,3.30
2023-05-23T21:44:48.435Z,3.93
2023-05-23T21:47:15.495Z,3.83
2023-05-23T21:49:42.625Z,3.40
2023-05-23T21:52:09.720Z,3.53
2023-05-23T21:54:36.816Z,3.03
2023-05-23T21:57:03.984Z,3.50
2023-05-23T21:59:32.493Z,3.70
2023-05-23T22:01:59.790Z,3.50
2023-05-23T22:04:27.084Z,3.77
2023-05-23T22:06:54.375Z,4.27
2023-05-23T22:09:21.560Z,3.43
2023-05-23T22:11:48.668Z,2.77
2023-05-23T22:14:15.758Z,3.90
2023-05-23T22:16:44.435Z,4.30
2023-05-23T22:19:11.572Z,3.47
2023-05-23T22:21:38.698Z,4.50
2023-05-23T22:24:06.144Z,3.10
2023-05-23T22:26:33.332Z,4.70
2023-05-23T22:29:00.831Z,3.30
2023-05-23T22:31:28.104Z,3.73
2023-05-23T22:33:56.665Z,2.90
2023-05-23T22:36:23.809Z,3.43
2023-05-23T22:38:51.175Z,4.33
2023-05-23T22:41:18.576Z,3.13
2023-05-23T22:43:45.818Z,3.40
2023-05-23T22:46:12.969Z,3.63
2023-05-23T22:48:40.081Z,4.17
2023-05-23T22:51:08.488Z,3.73
2023-05-23T22:53:35.578Z,3.57
2023-05-23T22:56:02.677Z,3.73
2023-05-23T22:58:29.826Z,3.90
2023-05-23T23:00:57.059Z,3.33
2023-05-23T23:03:24.308Z,4.20
2023-05-23T23:05:51.478Z,3.63
2023-05-23T23:08:19.931Z,4.60
2023-05-23T23:10:47.223Z,3.80
2023-05-23T23:13:14.366Z,4.03
2023-05-23T23:15:41.487Z,3.50
2023-05-23T23:18:08.660Z,4.23
2023-05-23T23:20:35.896Z,3.67
2023-05-23T23:23:02.992Z,3.93
2023-05-23T23:25:31.529Z,3.80
2023-05-23T23:27:58.602Z,4.43
2023-05-23T23:30:25.781Z,3.90
2023-05-23T23:32:53.035Z,4.20
2023-05-23T23:35:20.370Z,4.97
2023-05-23T23:37:47.466Z,3.83
2023-05-23T23:40:14.769Z,5.70
2023-05-23T23:42:43.435Z,4.00
2023-05-23T23:45:11.062Z,4.10
2023-05-23T23:47:38.233Z,3.57
2023-05-23T23:50:05.952Z,3.50
2023-05-23T23:52:33.068Z,4.10
2023-05-23T23:55:00.201Z,2.67
2023-05-23T23:57:27.324Z,5.10
2023-05-23T23:59:55.971Z,3.47
